Time;durP1;ratioP1;P1;durP2;ratioP2;P2;SDS_P1;SDS_P2;PMS_P1;PMS_P2;Temp;Humidity;BMP_temperature;BMP_pressure;BME280_temperature;BME280_humidity;BME280_pressure;Samples;Min_cycle;Max_cycle;Signal;HPM_P1;HPM_P2
2022/12/12 00:00:04;;;;;;;52.53;26.60;;;;;;;;;;5057126;28;20307;-75
2022/12/12 00:02:30;;;;;;;50.00;24.17;;;;;;;;;;5057605;28;20286;-77
2022/12/12 00:04:57;;;;;;;47.67;26.03;;;;;;;;;;5042403;28;20288;-76
2022/12/12 00:07:23;;;;;;;50.00;27.07;;;;;;;;;;5043907;28;20298;-75
2022/12/12 00:09:49;;;;;;;49.10;25.33;;;;;;;;;;5044033;28;20732;-76
2022/12/12 00:12:15;;;;;;;48.90;24.97;;;;;;;;;;5046076;28;20299;-76
2022/12/12 00:14:41;;;;;;;51.07;26.10;;;;;;;;;;5050660;28;20286;-76
2022/12/12 00:17:07;;;;;;;53.67;25.57;;;;;;;;;;5058757;28;20276;-76
2022/12/12 00:19:33;;;;;;;41.77;23.03;;;;;;;;;;5041289;28;20279;-76
2022/12/12 00:21:59;;;;;;;38.93;19.73;;;;;;;;;;5040675;28;20339;-75
2022/12/12 00:24:25;;;;;;;40.27;20.33;;;;;;;;;;5041155;28;20276;-76
2022/12/12 00:26:51;;;;;;;39.77;20.20;;;;;;;;;;5043573;28;20284;-76
2022/12/12 00:29:17;;;;;;;36.40;20.00;;;;;;;;;;5055256;28;20304;-75
2022/12/12 00:31:43;;;;;;;37.40;19.33;;;;;;;;;;5056628;28;20358;-76
2022/12/12 00:34:09;;;;;;;35.80;19.77;;;;;;;;;;5056746;28;20279;-76
2022/12/12 00:36:36;;;;;;;36.53;19.93;;;;;;;;;;5047181;28;20268;-76
2022/12/12 00:39:02;;;;;;;36.90;19.17;;;;;;;;;;5040224;28;20283;-75
2022/12/12 00:41:28;;;;;;;37.80;19.73;;;;;;;;;;5042662;28;20299;-76
2022/12/12 00:43:54;;;;;;;34.27;19.50;;;;;;;;;;5041201;28;20343;-76
2022/12/12 00:46:22;;;;;;;44.73;19.77;;;;;;;;;;5041754;28;20295;-75
2022/12/12 00:48:48;;;;;;;32.53;19.17;;;;;;;;;;5044142;28;20282;-76
2022/12/12 00:51:16;;;;;;;36.73;20.00;;;;;;;;;;5041655;28;20286;-77
2022/12/12 00:53:42;;;;;;;43.40;20.87;;;;;;;;;;5056446;28;20279;-76
2022/12/12 00:56:09;;;;;;;42.17;20.47;;;;;;;;;;5042254;28;20300;-76
2022/12/12 00:58:35;;;;;;;44.83;20.97;;;;;;;;;;5042737;28;20337;-77
2022/12/12 01:01:05;;;;;;;41.40;22.07;;;;;;;;;;5041761;28;20307;-76
2022/12/12 01:03:31;;;;;;;41.97;20.40;;;;;;;;;;5042949;28;20311;-76
2022/12/12 01:05:57;;;;;;;40.07;20.53;;;;;;;;;;5054583;28;20275;-76
2022/12/12 01:08:23;;;;;;;39.33;20.00;;;;;;;;;;5040556;28;20290;-75
2022/12/12 01:10:49;;;;;;;43.10;21.40;;;;;;;;;;5043988;28;20279;-75
2022/12/12 01:13:18;;;;;;;38.87;20.57;;;;;;;;;;5040512;28;20302;-75
2022/12/12 01:15:44;;;;;;;37.97;20.40;;;;;;;;;;5048515;28;20641;-76
2022/12/12 01:18:10;;;;;;;40.53;20.70;;;;;;;;;;5038276;28;20279;-75
2022/12/12 01:20:36;;;;;;;37.93;19.53;;;;;;;;;;5041299;28;20272;-76
2022/12/12 01:23:02;;;;;;;40.20;20.03;;;;;;;;;;5047120;28;20795;-76
2022/12/12 01:25:28;;;;;;;41.80;20.13;;;;;;;;;;5042381;28;20276;-76
2022/12/12 01:27:54;;;;;;;36.20;18.70;;;;;;;;;;5040675;28;20295;-77
2022/12/12 01:30:22;;;;;;;36.87;17.93;;;;;;;;;;5040413;28;20287;-76
2022/12/12 01:32:48;;;;;;;33.97;18.53;;;;;;;;;;5038714;28;20366;-77
2022/12/12 01:35:14;;;;;;;41.63;18.90;;;;;;;;;;5050061;28;20272;-75
2022/12/12 01:37:41;;;;;;;34.83;18.60;;;;;;;;;;5041370;28;20795;-76
2022/12/12 01:40:11;;;;;;;38.30;19.63;;;;;;;;;;5038261;28;20268;-76
2022/12/12 01:42:37;;;;;;;34.97;18.83;;;;;;;;;;5040730;28;20326;-75
2022/12/12 01:45:03;;;;;;;36.57;20.30;;;;;;;;;;5038772;28;20276;-76
2022/12/12 01:47:29;;;;;;;41.53;19.27;;;;;;;;;;5047969;28;20694;-75
2022/12/12 01:50:03;;;;;;;35.57;19.13;;;;;;;;;;5039199;28;20280;-75
2022/12/12 01:52:49;;;;;;;36.33;19.97;;;;;;;;;;5058573;28;20279;-76
2022/12/12 01:55:17;;;;;;;42.00;19.97;;;;;;;;;;5039347;28;20263;-77
2022/12/12 01:57:48;;;;;;;38.30;20.60;;;;;;;;;;5037893;28;20276;-77
2022/12/12 02:00:15;;;;;;;37.60;19.00;;;;;;;;;;5039049;28;20747;-76
2022/12/12 02:02:42;;;;;;;40.77;19.73;;;;;;;;;;5039245;28;20280;-76
2022/12/12 02:05:16;;;;;;;34.50;19.13;;;;;;;;;;5041288;28;20287;-76
2022/12/12 02:07:42;;;;;;;39.50;19.80;;;;;;;;;;5048172;28;20276;-76
2022/12/12 02:10:08;;;;;;;40.10;19.53;;;;;;;;;;5054384;28;20280;-76
2022/12/12 02:12:34;;;;;;;38.57;19.57;;;;;;;;;;5056510;28;20380;-77
2022/12/12 02:15:00;;;;;;;41.47;20.13;;;;;;;;;;5037074;28;20288;-76
2022/12/12 02:17:26;;;;;;;38.20;19.50;;;;;;;;;;5058386;28;20780;-77
2022/12/12 02:19:55;;;;;;;36.83;20.07;;;;;;;;;;5041378;28;20276;-77
2022/12/12 02:22:33;;;;;;;41.13;20.23;;;;;;;;;;5058383;28;20033;-77
2022/12/12 02:25:15;;;;;;;33.73;17.83;;;;;;;;;;5039685;28;20283;-77
2022/12/12 02:27:53;;;;;;;37.90;18.53;;;;;;;;;;5043556;28;21762;-77
2022/12/12 02:30:21;;;;;;;38.57;17.70;;;;;;;;;;5037792;28;20299;-77
2022/12/12 02:32:50;;;;;;;30.27;16.83;;;;;;;;;;5056600;28;21306;-76
2022/12/12 02:35:34;;;;;;;30.70;16.00;;;;;;;;;;5040888;28;20371;-77
2022/12/12 02:38:08;;;;;;;31.47;16.57;;;;;;;;;;5056164;28;20334;-76
2022/12/12 02:40:53;;;;;;;33.77;17.03;;;;;;;;;;5054032;28;20721;-76
2022/12/12 02:43:31;;;;;;;28.13;15.50;;;;;;;;;;5054231;28;20377;-77
2022/12/12 02:45:59;;;;;;;32.80;17.47;;;;;;;;;;5053890;28;20335;-76
2022/12/12 02:48:35;;;;;;;37.20;17.53;;;;;;;;;;5054431;28;20276;-77
2022/12/12 02:51:04;;;;;;;29.87;15.87;;;;;;;;;;5038724;28;20276;-77
2022/12/12 02:53:30;;;;;;;32.33;17.60;;;;;;;;;;5043432;28;21224;-76
2022/12/12 02:56:04;;;;;;;32.60;16.47;;;;;;;;;;5038684;28;20958;-77
2022/12/12 02:58:33;;;;;;;30.97;16.27;;;;;;;;;;5055582;28;20283;-76
2022/12/12 03:01:09;;;;;;;31.67;16.17;;;;;;;;;;5061593;28;20275;-75
2022/12/12 03:09:46;;;;;;;29.17;15.70;;;;;;;;;;5043688;28;20282;-76
2022/12/12 03:12:25;;;;;;;32.47;16.33;;;;;;;;;;5058142;28;20374;-76
2022/12/12 03:15:07;;;;;;;40.70;15.20;;;;;;;;;;5061386;28;20267;-75
2022/12/12 03:17:48;;;;;;;28.73;14.73;;;;;;;;;;5053370;28;20280;-76
2022/12/12 03:20:29;;;;;;;30.60;15.37;;;;;;;;;;5057220;28;20025;-76
2022/12/12 03:23:02;;;;;;;27.17;15.17;;;;;;;;;;5059594;28;21764;-77
2022/12/12 03:25:34;;;;;;;28.10;13.23;;;;;;;;;;5062681;28;20368;-76
2022/12/12 03:28:09;;;;;;;24.00;12.95;;;;;;;;;;5041723;28;20779;-76
2022/12/12 03:30:38;;;;;;;33.57;14.07;;;;;;;;;;5059725;28;20032;-77
2022/12/12 03:33:28;;;;;;;26.33;12.47;;;;;;;;;;5051830;28;20292;-77
2022/12/12 03:36:23;;;;;;;27.47;13.30;;;;;;;;;;5044373;28;20279;-76
2022/12/12 03:38:56;;;;;;;27.67;13.07;;;;;;;;;;5029946;28;20754;-77
2022/12/12 03:41:24;;;;;;;24.48;13.30;;;;;;;;;;5057991;28;20268;-77
2022/12/12 03:43:53;;;;;;;24.83;12.93;;;;;;;;;;5056920;28;20068;-77
2022/12/12 03:46:22;;;;;;;27.83;14.00;;;;;;;;;;5041390;28;20278;-76
2022/12/12 03:49:01;;;;;;;27.53;12.23;;;;;;;;;;5061332;28;20275;-76
2022/12/12 03:51:31;;;;;;;34.23;12.70;;;;;;;;;;5039969;28;20767;-76
2022/12/12 03:53:57;;;;;;;25.10;12.57;;;;;;;;;;5042410;28;20291;-76
2022/12/12 03:56:29;;;;;;;26.10;12.30;;;;;;;;;;5043124;28;20271;-77
2022/12/12 03:59:02;;;;;;;21.02;12.25;;;;;;;;;;5055883;28;20060;-76
2022/12/12 04:01:34;;;;;;;22.85;12.23;;;;;;;;;;5049156;28;20021;-77
2022/12/12 04:04:04;;;;;;;25.73;12.32;;;;;;;;;;5040599;28;20099;-77
2022/12/12 04:06:35;;;;;;;25.83;11.10;;;;;;;;;;5042818;28;20025;-77
2022/12/12 04:14:46;;;;;;;24.13;11.10;;;;;;;;;;5040606;28;20325;-77
2022/12/12 04:17:14;;;;;;;21.60;11.32;;;;;;;;;;5038570;28;20271;-76
2022/12/12 04:25:33;;;;;;;23.03;10.80;;;;;;;;;;5039968;28;20274;-76
2022/12/12 04:28:03;;;;;;;22.50;11.43;;;;;;;;;;5060064;28;20279;-75
2022/12/12 04:30:31;;;;;;;22.13;10.63;;;;;;;;;;5039918;28;20275;-75
2022/12/12 04:33:02;;;;;;;21.07;11.07;;;;;;;;;;5039408;28;20751;-76
2022/12/12 04:35:57;;;;;;;22.17;10.77;;;;;;;;;;5041953;28;20268;-75
2022/12/12 04:38:24;;;;;;;18.57;9.70;;;;;;;;;;5045413;28;20272;-76
2022/12/12 04:40:52;;;;;;;21.13;11.67;;;;;;;;;;5047237;28;20429;-75
2022/12/12 04:43:20;;;;;;;24.00;11.60;;;;;;;;;;5055890;28;20363;-76
2022/12/12 04:45:49;;;;;;;23.13;11.53;;;;;;;;;;5039329;28;20279;-76
2022/12/12 04:48:17;;;;;;;26.63;10.77;;;;;;;;;;5057559;28;20287;-75
2022/12/12 04:50:47;;;;;;;27.93;11.60;;;;;;;;;;5055795;28;20276;-76
2022/12/12 04:53:15;;;;;;;22.23;11.40;;;;;;;;;;5058376;28;20386;-76
2022/12/12 04:55:46;;;;;;;23.57;10.47;;;;;;;;;;5043902;28;20355;-76
2022/12/12 04:58:12;;;;;;;20.90;10.80;;;;;;;;;;5042783;28;21102;-76
2022/12/12 05:00:43;;;;;;;22.73;11.40;;;;;;;;;;5041576;28;20271;-76
2022/12/12 05:03:12;;;;;;;24.73;11.30;;;;;;;;;;5039449;28;20275;-76
2022/12/12 05:05:43;;;;;;;23.97;11.47;;;;;;;;;;5056843;28;20684;-75
2022/12/12 05:08:16;;;;;;;23.07;10.37;;;;;;;;;;5048014;28;20351;-75
2022/12/12 05:10:43;;;;;;;24.17;11.45;;;;;;;;;;5041010;28;20374;-75
2022/12/12 05:13:15;;;;;;;24.03;11.60;;;;;;;;;;5039903;28;20032;-76
2022/12/12 05:15:41;;;;;;;23.77;11.23;;;;;;;;;;5041927;28;20355;-76
2022/12/12 05:18:08;;;;;;;21.23;9.80;;;;;;;;;;5039321;28;20268;-75
2022/12/12 05:20:34;;;;;;;23.27;10.50;;;;;;;;;;5040597;28;20378;-76
2022/12/12 05:23:00;;;;;;;24.40;10.83;;;;;;;;;;5054743;28;20275;-76
2022/12/12 05:25:26;;;;;;;23.67;10.33;;;;;;;;;;5058595;28;20279;-76
2022/12/12 05:27:52;;;;;;;22.27;10.67;;;;;;;;;;5055921;28;20287;-76
2022/12/12 05:30:18;;;;;;;26.23;10.67;;;;;;;;;;5047784;28;20754;-76
2022/12/12 05:32:44;;;;;;;23.47;9.90;;;;;;;;;;5055677;28;21856;-75
2022/12/12 05:35:11;;;;;;;21.23;10.33;;;;;;;;;;5035951;28;20283;-75
2022/12/12 05:37:37;;;;;;;20.63;10.70;;;;;;;;;;5043249;28;20735;-76
2022/12/12 05:40:06;;;;;;;25.27;10.87;;;;;;;;;;5056406;28;20302;-76
2022/12/12 05:42:35;;;;;;;25.77;10.97;;;;;;;;;;5055718;28;20319;-76
2022/12/12 05:45:01;;;;;;;25.57;11.50;;;;;;;;;;5044163;28;20362;-77
2022/12/12 05:47:27;;;;;;;23.67;11.20;;;;;;;;;;5054839;28;20346;-76
2022/12/12 05:49:53;;;;;;;22.93;10.70;;;;;;;;;;5044591;28;20271;-76
2022/12/12 05:52:20;;;;;;;19.57;11.37;;;;;;;;;;5054795;28;20319;-76
2022/12/12 05:54:46;;;;;;;20.33;11.10;;;;;;;;;;5043171;28;20751;-77
2022/12/12 05:57:12;;;;;;;19.27;10.17;;;;;;;;;;5041946;28;20609;-77
2022/12/12 05:59:38;;;;;;;24.63;10.80;;;;;;;;;;5055479;28;20283;-77
2022/12/12 06:02:04;;;;;;;23.23;10.10;;;;;;;;;;5042506;28;20751;-76
2022/12/12 06:04:30;;;;;;;26.10;10.83;;;;;;;;;;5058734;28;20774;-76
2022/12/12 06:06:56;;;;;;;20.53;9.83;;;;;;;;;;5039710;28;20690;-77
2022/12/12 06:09:22;;;;;;;24.77;9.93;;;;;;;;;;5040051;28;20275;-77
2022/12/12 06:11:48;;;;;;;25.03;10.53;;;;;;;;;;5044800;28;20655;-76
2022/12/12 06:14:14;;;;;;;22.13;10.20;;;;;;;;;;5057851;28;20279;-76
2022/12/12 06:16:40;;;;;;;20.97;10.73;;;;;;;;;;5056373;28;20290;-76
2022/12/12 06:19:06;;;;;;;23.80;10.50;;;;;;;;;;5040473;28;20299;-76
2022/12/12 06:21:34;;;;;;;19.83;9.97;;;;;;;;;;5036912;28;20279;-76
2022/12/12 06:24:00;;;;;;;20.23;10.23;;;;;;;;;;5036916;28;20287;-75
2022/12/12 06:26:26;;;;;;;23.10;10.40;;;;;;;;;;5039326;28;20306;-76
2022/12/12 06:28:52;;;;;;;21.07;10.03;;;;;;;;;;5040411;28;20283;-76
2022/12/12 06:31:18;;;;;;;24.07;11.30;;;;;;;;;;5040958;28;20276;-76
2022/12/12 06:33:45;;;;;;;22.50;9.67;;;;;;;;;;5037743;28;20342;-77
2022/12/12 06:36:12;;;;;;;20.23;10.27;;;;;;;;;;5038155;28;20668;-76
2022/12/12 06:38:39;;;;;;;19.07;9.83;;;;;;;;;;5036404;28;20716;-75
2022/12/12 06:41:09;;;;;;;25.30;10.67;;;;;;;;;;5036634;28;20300;-76
2022/12/12 06:43:35;;;;;;;19.70;9.60;;;;;;;;;;5038326;28;20276;-77
2022/12/12 06:46:06;;;;;;;27.70;11.70;;;;;;;;;;5057522;28;20307;-77
2022/12/12 06:48:32;;;;;;;23.03;10.13;;;;;;;;;;5043089;28;20271;-75
2022/12/12 06:50:59;;;;;;;23.17;10.80;;;;;;;;;;5046493;28;20283;-77
2022/12/12 06:53:25;;;;;;;23.60;10.93;;;;;;;;;;5058630;28;20774;-77
2022/12/12 06:55:51;;;;;;;25.33;10.60;;;;;;;;;;5044559;28;20280;-76
2022/12/12 06:58:17;;;;;;;20.10;10.93;;;;;;;;;;5043304;28;20332;-77
2022/12/12 07:00:43;;;;;;;22.70;10.63;;;;;;;;;;5043583;28;20284;-75
2022/12/12 07:03:12;;;;;;;26.83;12.00;;;;;;;;;;5041937;28;22134;-76
2022/12/12 07:05:38;;;;;;;27.00;10.80;;;;;;;;;;5041783;28;20758;-77
2022/12/12 07:08:06;;;;;;;23.57;10.30;;;;;;;;;;5041430;28;20291;-76
2022/12/12 07:10:34;;;;;;;20.10;10.50;;;;;;;;;;5042599;28;20318;-76
2022/12/12 07:13:00;;;;;;;26.37;12.47;;;;;;;;;;5050927;28;20839;-76
2022/12/12 07:15:27;;;;;;;24.33;11.73;;;;;;;;;;5059509;28;20290;-77
2022/12/12 07:17:53;;;;;;;26.23;11.73;;;;;;;;;;5043761;28;20777;-77
2022/12/12 07:20:20;;;;;;;34.23;10.33;;;;;;;;;;5040739;28;20261;-76
2022/12/12 07:22:48;;;;;;;26.23;11.83;;;;;;;;;;5043835;28;22019;-77
2022/12/12 07:25:14;;;;;;;21.50;11.30;;;;;;;;;;5060452;28;20797;-76
2022/12/12 07:27:40;;;;;;;29.27;11.70;;;;;;;;;;5043817;28;20355;-76
2022/12/12 07:30:07;;;;;;;23.60;11.47;;;;;;;;;;5062792;28;20351;-75
2022/12/12 07:32:33;;;;;;;24.90;12.27;;;;;;;;;;5043487;28;20287;-75
2022/12/12 07:34:59;;;;;;;25.33;12.47;;;;;;;;;;5045213;28;20279;-75
2022/12/12 07:37:25;;;;;;;24.73;11.37;;;;;;;;;;5056300;28;20280;-76
2022/12/12 07:39:51;;;;;;;23.73;11.30;;;;;;;;;;5041961;28;20280;-75
2022/12/12 07:42:18;;;;;;;26.77;11.70;;;;;;;;;;5040617;28;20268;-76
2022/12/12 07:44:44;;;;;;;24.77;10.87;;;;;;;;;;5042594;28;20271;-76
2022/12/12 07:47:10;;;;;;;25.97;11.63;;;;;;;;;;5043692;28;20264;-75
2022/12/12 07:49:36;;;;;;;26.73;11.37;;;;;;;;;;5056167;28;20353;-76
2022/12/12 07:52:02;;;;;;;23.83;11.70;;;;;;;;;;5041627;28;20280;-75
2022/12/12 07:54:28;;;;;;;28.53;11.63;;;;;;;;;;5049480;28;20276;-77
2022/12/12 07:56:54;;;;;;;25.83;11.70;;;;;;;;;;5056885;28;20643;-75
2022/12/12 07:59:20;;;;;;;28.17;11.77;;;;;;;;;;5057898;28;20756;-76
2022/12/12 08:01:46;;;;;;;24.03;11.73;;;;;;;;;;5041073;28;20267;-76
2022/12/12 08:04:12;;;;;;;25.60;12.07;;;;;;;;;;5045073;28;20264;-76
2022/12/12 08:06:39;;;;;;;25.93;12.00;;;;;;;;;;5040292;28;20986;-76
2022/12/12 08:09:05;;;;;;;23.23;12.47;;;;;;;;;;5049332;28;20717;-76
2022/12/12 08:11:33;;;;;;;25.30;12.50;;;;;;;;;;5057314;28;20285;-77
2022/12/12 08:13:59;;;;;;;29.03;13.40;;;;;;;;;;5040624;28;20338;-76
2022/12/12 08:16:26;;;;;;;27.97;12.43;;;;;;;;;;5039762;28;20298;-76
2022/12/12 08:18:53;;;;;;;30.63;14.80;;;;;;;;;;5043142;28;20283;-75
2022/12/12 08:21:19;;;;;;;30.30;14.27;;;;;;;;;;5039644;28;20275;-76
2022/12/12 08:23:45;;;;;;;25.60;13.97;;;;;;;;;;5060542;28;20321;-76
2022/12/12 08:26:13;;;;;;;31.10;14.30;;;;;;;;;;5045792;28;20276;-76
2022/12/12 08:28:40;;;;;;;29.23;13.23;;;;;;;;;;5040944;28;20294;-76
2022/12/12 08:31:06;;;;;;;33.50;15.23;;;;;;;;;;5040146;28;20536;-76
2022/12/12 08:33:32;;;;;;;30.07;14.53;;;;;;;;;;5040435;28;20298;-75
2022/12/12 08:36:00;;;;;;;30.43;13.17;;;;;;;;;;5043497;28;20348;-76
2022/12/12 08:38:29;;;;;;;29.90;14.07;;;;;;;;;;5040641;28;21294;-76
2022/12/12 08:40:55;;;;;;;30.50;13.63;;;;;;;;;;5044094;28;20303;-76
2022/12/12 08:43:21;;;;;;;29.20;13.50;;;;;;;;;;5041414;28;20346;-77
2022/12/12 08:45:47;;;;;;;33.53;13.30;;;;;;;;;;5039423;28;20279;-77
2022/12/12 08:48:13;;;;;;;25.77;13.07;;;;;;;;;;5040744;28;20740;-75
2022/12/12 08:50:40;;;;;;;28.97;12.20;;;;;;;;;;5056717;28;20291;-76
2022/12/12 08:53:06;;;;;;;26.97;12.77;;;;;;;;;;5042272;28;20294;-77
2022/12/12 08:55:32;;;;;;;28.60;13.07;;;;;;;;;;5042383;28;20329;-75
2022/12/12 08:57:58;;;;;;;24.40;11.80;;;;;;;;;;5056984;28;20355;-77
2022/12/12 09:00:24;;;;;;;30.27;13.53;;;;;;;;;;5038661;28;20422;-76
2022/12/12 09:02:50;;;;;;;25.00;12.10;;;;;;;;;;5041643;28;20325;-76
2022/12/12 09:05:16;;;;;;;30.57;13.33;;;;;;;;;;5055055;28;21189;-75
2022/12/12 09:07:42;;;;;;;27.53;13.27;;;;;;;;;;5041610;28;20724;-75
2022/12/12 09:10:08;;;;;;;27.73;12.10;;;;;;;;;;5043654;28;20282;-76
2022/12/12 09:12:34;;;;;;;27.93;12.27;;;;;;;;;;5055034;28;20686;-75
2022/12/12 09:15:00;;;;;;;26.13;12.40;;;;;;;;;;5039835;28;20298;-76
2022/12/12 09:17:29;;;;;;;23.07;12.33;;;;;;;;;;5038685;28;20357;-77
2022/12/12 09:19:55;;;;;;;27.23;12.87;;;;;;;;;;5055180;28;20748;-75
2022/12/12 09:22:32;;;;;;;27.43;13.57;;;;;;;;;;5055904;28;20279;-76
2022/12/12 09:24:59;;;;;;;26.40;13.57;;;;;;;;;;5057476;28;20280;-77
2022/12/12 09:27:25;;;;;;;25.30;13.77;;;;;;;;;;5037572;28;20358;-76
2022/12/12 09:29:51;;;;;;;26.40;13.37;;;;;;;;;;5038238;28;20284;-76
2022/12/12 09:32:20;;;;;;;27.80;12.90;;;;;;;;;;5039467;28;20361;-76
2022/12/12 09:34:46;;;;;;;28.40;13.07;;;;;;;;;;5039156;28;20272;-77
2022/12/12 09:37:12;;;;;;;26.40;11.67;;;;;;;;;;5042963;28;20299;-77
2022/12/12 09:39:38;;;;;;;25.97;13.20;;;;;;;;;;5039816;28;20338;-77
2022/12/12 09:42:30;;;;;;;24.53;12.70;;;;;;;;;;5054113;28;20276;-77
2022/12/12 09:45:05;;;;;;;21.33;10.90;;;;;;;;;;5039022;28;20326;-75
2022/12/12 09:47:35;;;;;;;23.40;11.77;;;;;;;;;;5039545;28;20119;-75
2022/12/12 09:50:04;;;;;;;22.73;11.40;;;;;;;;;;5041098;28;20283;-75
2022/12/12 09:52:32;;;;;;;29.97;13.97;;;;;;;;;;5053443;28;20291;-76
2022/12/12 09:54:59;;;;;;;25.13;11.77;;;;;;;;;;5055578;28;20277;-76
2022/12/12 09:57:30;;;;;;;28.77;13.47;;;;;;;;;;5038084;28;20280;-77
2022/12/12 10:00:08;;;;;;;33.07;11.97;;;;;;;;;;5049465;28;20330;-77
2022/12/12 10:02:46;;;;;;;26.50;12.30;;;;;;;;;;5055715;28;20276;-76
2022/12/12 10:05:40;;;;;;;22.50;11.60;;;;;;;;;;5053713;28;21111;-76
2022/12/12 10:08:25;;;;;;;23.67;12.00;;;;;;;;;;5038985;28;20348;-77
2022/12/12 10:10:53;;;;;;;26.93;13.03;;;;;;;;;;5040559;28;20313;-77
2022/12/12 10:13:27;;;;;;;28.10;12.93;;;;;;;;;;5049842;28;20287;-76
2022/12/12 10:15:56;;;;;;;27.60;12.47;;;;;;;;;;5054664;28;20280;-77
2022/12/12 10:18:28;;;;;;;31.87;14.90;;;;;;;;;;5043130;28;20276;-76
2022/12/12 10:20:56;;;;;;;24.20;11.18;;;;;;;;;;5054349;28;20291;-76
2022/12/12 10:23:26;;;;;;;26.17;12.03;;;;;;;;;;5038222;28;20045;-76
2022/12/12 10:25:52;;;;;;;25.47;12.17;;;;;;;;;;5039710;28;20303;-77
2022/12/12 10:28:23;;;;;;;17.83;11.10;;;;;;;;;;5043892;28;20310;-77
2022/12/12 10:31:08;;;;;;;21.60;9.83;;;;;;;;;;5040009;28;20072;-78
2022/12/12 10:33:37;;;;;;;19.53;9.80;;;;;;;;;;5039951;28;20295;-77
2022/12/12 10:36:18;;;;;;;22.07;11.13;;;;;;;;;;5059906;28;20275;-77
2022/12/12 10:38:44;;;;;;;18.10;8.40;;;;;;;;;;5056375;28;20286;-76
2022/12/12 10:41:26;;;;;;;25.43;12.13;;;;;;;;;;5039197;28;20728;-76
2022/12/12 10:44:11;;;;;;;28.63;11.53;;;;;;;;;;5056392;28;20136;-77
2022/12/12 10:46:43;;;;;;;26.53;12.43;;;;;;;;;;5041937;28;20287;-76
2022/12/12 10:49:13;;;;;;;26.50;12.48;;;;;;;;;;5054563;28;20280;-76
2022/12/12 10:51:39;;;;;;;27.47;11.73;;;;;;;;;;5059611;28;20044;-77
2022/12/12 10:54:11;;;;;;;29.93;11.87;;;;;;;;;;5040884;28;20276;-77
2022/12/12 10:56:37;;;;;;;22.63;11.27;;;;;;;;;;5041151;28;20282;-77
2022/12/12 10:59:03;;;;;;;19.33;9.80;;;;;;;;;;5037565;28;20264;-77
2022/12/12 11:01:32;;;;;;;22.43;11.13;;;;;;;;;;5042007;28;20766;-76
2022/12/12 11:04:01;;;;;;;22.43;10.50;;;;;;;;;;5037310;28;20280;-76
2022/12/12 11:06:38;;;;;;;22.93;10.53;;;;;;;;;;5055055;28;20752;-77
2022/12/12 11:09:07;;;;;;;21.57;11.03;;;;;;;;;;5055886;28;20280;-76
2022/12/12 11:11:34;;;;;;;23.03;11.57;;;;;;;;;;5055566;28;20276;-76
2022/12/12 11:14:01;;;;;;;24.30;11.43;;;;;;;;;;5036943;28;20287;-76
2022/12/12 11:16:28;;;;;;;20.27;10.33;;;;;;;;;;5046696;28;20723;-75
2022/12/12 11:18:59;;;;;;;20.37;10.83;;;;;;;;;;5039118;28;20286;-76
2022/12/12 11:21:25;;;;;;;20.40;10.57;;;;;;;;;;5057131;28;20411;-76
2022/12/12 11:23:53;;;;;;;22.23;11.30;;;;;;;;;;5042250;28;20348;-76
2022/12/12 11:26:22;;;;;;;37.17;19.17;;;;;;;;;;5039671;28;20280;-75
2022/12/12 11:29:02;;;;;;;29.87;18.10;;;;;;;;;;5039793;28;20359;-76
2022/12/12 11:31:30;;;;;;;25.63;14.93;;;;;;;;;;5056208;28;20302;-77
2022/12/12 11:33:58;;;;;;;29.27;14.93;;;;;;;;;;5059015;28;20295;-77
2022/12/12 11:36:31;;;;;;;29.53;15.67;;;;;;;;;;5043517;28;20296;-76
2022/12/12 11:38:57;;;;;;;28.38;15.75;;;;;;;;;;5055470;28;20283;-76
2022/12/12 11:41:23;;;;;;;25.07;13.83;;;;;;;;;;5042203;28;20094;-76
2022/12/12 11:43:49;;;;;;;25.50;15.13;;;;;;;;;;5044006;28;20348;-77
2022/12/12 11:46:15;;;;;;;30.77;14.60;;;;;;;;;;5043059;28;22117;-77
2022/12/12 11:48:50;;;;;;;29.17;15.03;;;;;;;;;;5049870;28;20037;-76
2022/12/12 11:51:32;;;;;;;28.10;14.73;;;;;;;;;;5057230;28;20123;-77
2022/12/12 11:53:59;;;;;;;26.00;13.87;;;;;;;;;;5060158;28;20382;-76
2022/12/12 11:56:37;;;;;;;31.43;15.90;;;;;;;;;;5041301;28;20893;-77
2022/12/12 11:59:22;;;;;;;23.60;13.07;;;;;;;;;;5057570;28;20303;-77
2022/12/12 12:02:06;;;;;;;23.73;13.43;;;;;;;;;;5056292;28;20334;-77
2022/12/12 12:04:35;;;;;;;24.97;13.63;;;;;;;;;;5045570;28;20268;-76
2022/12/12 12:07:07;;;;;;;24.60;13.70;;;;;;;;;;5058372;28;20318;-75
2022/12/12 12:09:43;;;;;;;28.42;14.32;;;;;;;;;;5040319;28;20271;-77
2022/12/12 12:12:17;;;;;;;24.10;13.33;;;;;;;;;;5046510;28;20739;-77
2022/12/12 12:14:59;;;;;;;29.60;14.00;;;;;;;;;;5051816;28;20271;-76
2022/12/12 12:17:33;;;;;;;24.23;13.63;;;;;;;;;;5042567;28;20338;-75
2022/12/12 12:20:02;;;;;;;27.50;14.60;;;;;;;;;;5045104;28;20032;-76
2022/12/12 12:22:28;;;;;;;23.63;13.30;;;;;;;;;;5059731;28;20600;-76
2022/12/12 12:25:00;;;;;;;23.60;12.80;;;;;;;;;;5041724;28;20276;-76
2022/12/12 12:27:32;;;;;;;32.45;16.30;;;;;;;;;;5058256;28;20026;-77
2022/12/12 12:29:58;;;;;;;29.67;13.80;;;;;;;;;;5040876;28;20037;-77
2022/12/12 12:32:30;;;;;;;28.63;13.80;;;;;;;;;;5058803;28;20036;-76
2022/12/12 12:34:56;;;;;;;24.95;12.95;;;;;;;;;;5053980;28;20029;-77
2022/12/12 12:37:25;;;;;;;27.90;13.37;;;;;;;;;;5042957;28;20033;-77
2022/12/12 12:40:10;;;;;;;24.47;13.30;;;;;;;;;;5058204;28;20025;-77
2022/12/12 12:42:36;;;;;;;23.57;12.93;;;;;;;;;;5043845;28;20362;-76
2022/12/12 12:45:23;;;;;;;22.83;12.37;;;;;;;;;;5043122;28;20294;-77
2022/12/12 12:47:55;;;;;;;27.83;14.57;;;;;;;;;;5039735;28;20094;-77
2022/12/12 12:50:27;;;;;;;25.95;12.63;;;;;;;;;;5041142;28;20679;-77
2022/12/12 12:52:58;;;;;;;38.92;20.90;;;;;;;;;;5044149;28;20039;-77
2022/12/12 12:55:30;;;;;;;31.50;15.23;;;;;;;;;;5042579;28;20036;-76
2022/12/12 12:58:00;;;;;;;28.80;12.90;;;;;;;;;;5043875;28;20272;-78
2022/12/12 13:00:29;;;;;;;22.83;12.60;;;;;;;;;;5056700;28;20133;-76
2022/12/12 13:03:06;;;;;;;22.30;12.57;;;;;;;;;;5039832;28;20312;-77
2022/12/12 13:05:40;;;;;;;23.00;11.90;;;;;;;;;;5060874;28;20275;-76
2022/12/12 13:08:13;;;;;;;32.50;14.27;;;;;;;;;;5056129;28;20729;-77
2022/12/12 13:10:43;;;;;;;36.13;22.43;;;;;;;;;;5052249;28;20294;-77
2022/12/12 13:13:30;;;;;;;27.23;13.00;;;;;;;;;;5041716;28;20314;-76
2022/12/12 13:16:04;;;;;;;28.47;13.30;;;;;;;;;;5048769;28;20379;-77
2022/12/12 13:18:32;;;;;;;23.63;13.07;;;;;;;;;;5049832;28;20112;-76
2022/12/12 13:21:04;;;;;;;25.80;13.83;;;;;;;;;;5041076;28;20279;-76
2022/12/12 13:23:36;;;;;;;27.40;14.00;;;;;;;;;;5044897;28;20033;-77
2022/12/12 13:26:02;;;;;;;30.13;15.40;;;;;;;;;;5039713;28;20037;-76
2022/12/12 13:28:32;;;;;;;30.83;14.63;;;;;;;;;;5040136;28;20029;-78
2022/12/12 13:31:17;;;;;;;22.60;13.17;;;;;;;;;;5043471;28;20040;-77
2022/12/12 13:33:49;;;;;;;22.90;12.93;;;;;;;;;;5039919;28;20107;-77
2022/12/12 13:36:20;;;;;;;23.77;12.03;;;;;;;;;;5056822;28;20346;-77
2022/12/12 13:38:51;;;;;;;26.93;12.53;;;;;;;;;;5056868;28;20397;-77
2022/12/12 13:41:17;;;;;;;22.40;12.50;;;;;;;;;;5035846;28;20465;-77
2022/12/12 13:43:45;;;;;;;25.00;13.37;;;;;;;;;;5049908;28;20319;-76
2022/12/12 13:46:26;;;;;;;28.90;14.13;;;;;;;;;;5040005;28;20116;-76
2022/12/12 13:48:52;;;;;;;28.80;12.20;;;;;;;;;;5043525;28;20449;-77
2022/12/12 13:51:27;;;;;;;21.90;12.03;;;;;;;;;;5058685;28;20040;-77
2022/12/12 13:54:05;;;;;;;23.63;12.57;;;;;;;;;;5056931;28;20033;-77
2022/12/12 13:56:38;;;;;;;26.27;12.23;;;;;;;;;;5055132;28;20052;-77
2022/12/12 13:59:04;;;;;;;23.48;12.88;;;;;;;;;;5054541;28;20040;-76
2022/12/12 14:01:38;;;;;;;20.40;12.33;;;;;;;;;;5054771;28;20044;-77
2022/12/12 14:04:07;;;;;;;21.47;11.73;;;;;;;;;;5057201;28;20037;-77
2022/12/12 14:06:33;;;;;;;20.03;11.90;;;;;;;;;;5042746;28;20033;-77
2022/12/12 14:08:59;;;;;;;24.33;12.80;;;;;;;;;;5056193;28;20025;-77
2022/12/12 14:11:27;;;;;;;21.07;11.70;;;;;;;;;;5056321;28;20072;-77
2022/12/12 14:14:03;;;;;;;24.80;11.97;;;;;;;;;;5044438;28;20140;-77
2022/12/12 14:16:29;;;;;;;19.83;11.50;;;;;;;;;;5038291;28;20068;-76
2022/12/12 14:18:58;;;;;;;29.47;13.80;;;;;;;;;;5039381;28;20056;-77
2022/12/12 14:21:44;;;;;;;25.70;12.40;;;;;;;;;;5056055;28;20029;-77
2022/12/12 14:24:41;;;;;;;29.03;12.53;;;;;;;;;;5041963;28;20025;-76
2022/12/12 14:27:08;;;;;;;20.40;11.43;;;;;;;;;;5055653;28;21637;-78
2022/12/12 14:29:38;;;;;;;20.93;11.30;;;;;;;;;;5040916;28;20381;-75
2022/12/12 14:32:10;;;;;;;20.17;10.50;;;;;;;;;;5038741;28;20032;-77
2022/12/12 14:34:39;;;;;;;29.15;13.40;;;;;;;;;;5040142;28;20090;-76
2022/12/12 14:37:24;;;;;;;21.73;10.80;;;;;;;;;;5054745;28;20029;-77
2022/12/12 14:39:59;;;;;;;20.70;10.90;;;;;;;;;;5055513;28;20032;-76
2022/12/12 14:42:28;;;;;;;29.73;12.97;;;;;;;;;;5054746;28;20072;-76
2022/12/12 14:44:55;;;;;;;24.70;11.50;;;;;;;;;;5043432;28;20453;-75
2022/12/12 14:47:21;;;;;;;23.57;12.03;;;;;;;;;;5055021;28;20029;-76
2022/12/12 14:49:47;;;;;;;22.73;11.43;;;;;;;;;;5040096;28;20037;-76